dimanche 19 janvier 2014

ALERTE SPOTTING 19/01/14


744 EC-KQC Pullmantur Air
arv PLM6121/PLM710 08h50/10h50

73H CN-RGN RAM (sticker 50th 737)
   AT650/AT651   11h20/19h45

IL9 Cubana CU-T1251
   CU444/CU445  15h05/17h05

320 EC-JZQ Vueling (stickers Thanks)
   VY1466/VY1467   16h50/17h25

CNJ D-CEFO
   AHO532  17h00/18h30

320 F-HDMF Air Corsica (cyclistes)
   XK4517/XK4504   20h00/21h00

73H LN-NGE Norwegian (dérive unicef)
   DY3638/DY3639  21h05/21h35

 Manque les prévisions Air Europa / Flybe / certains Air Algérie

*** Heures en Local Time / prévisions soumises
 à modifications de dernières minutes ***

le TAF de la journée:



METAR: LFPO 190330Z 18003KT 7000 BKN042 07/06 Q0993 NOSIG=
 
TAF LONG: LFPO 182300Z 1900/2006 17006KT CAVOK BECMG 1900/1902 -RA BKN012
     PROB40 TEMPO 1902/1904 4000 RA BKN004 BECMG 1907/1909 20005KT NSW BKN008 

     PROB30 TEMPO 1907/1915 4000 BR BKN004 BECMG 1915/1918 BKN018
     PROB30 TEMPO 1914/1922 SCT020 BECMG 1922/1924 27005KT NSW BKN007
     PROB40 TEMPO 2000/2006 2500 BR BKN003=


Les logs des jours précédents :
 http://www.airkalo.com/ORLYAVIATION/Logdumois.html